Terminal Aerodrome Forecast
Issued by NWS

Home | Current Version | Previous Version | Graphics & Text | Print | Product List | Glossary On
Versions: 1 2 3 4 5 6 7 8 9 10 11 12 13 14 15 16 17 18 19 20 21
420
FTUS43 KMPX 180520
TAFAXN
TAF
KAXN 180520Z 1806/1906 28009KT P6SM SKC
     FM181200 28005KT 4SM BR SKC
     FM181400 26006KT P6SM BKN200
     FM190000 17005KT P6SM BKN200=

USA.gov is the U.S. government's official web portal to all federal, state and local government web resources and services.